Terminal Aerodrome Forecast
Issued by NWS

Home | Current Version | Previous Version | Graphics & Text | Print | Product List | Glossary Off
Versions: 1 2 3 4 5 6 7 8 9 10 11 12 13 14 15 16 17 18 19 20 21 22 23 24 25 26 27 28 29 30 31 32 33 34 35 36 37 38 39 40

000
FTUS43 KDDC 191120
TAFGCK
TAF
KGCK 191120Z 1912/2012 16004KT 1/4SM FG VV005
     FM191300 18008KT 1SM BR BKN015
     FM191700 18013KT P6SM BKN200
     FM192100 17018G28KT P6SM BKN200
     FM200900 19011KT P6SM SCT130
     FM201000 21011KT P6SM BKN150=

USA.gov is the U.S. government's official web portal to all federal, state and local government web resources and services.